sensor_id;sensor_type;location;lat;lon;timestamp;P1;durP1;ratioP1;P2;durP2;ratioP2
13012;SDS011;22580;57.670;12.006;2024-02-15T00:00:37;0.30;;;0.30;;
13012;SDS011;22580;57.670;12.006;2024-02-15T00:03:05;0.20;;;0.20;;
13012;SDS011;22580;57.670;12.006;2024-02-15T00:05:33;0.30;;;0.30;;
13012;SDS011;22580;57.670;12.006;2024-02-15T00:08:01;0.20;;;0.20;;
13012;SDS011;22580;57.670;12.006;2024-02-15T00:10:29;0.30;;;0.30;;
13012;SDS011;22580;57.670;12.006;2024-02-15T00:12:56;0.40;;;0.40;;
13012;SDS011;22580;57.670;12.006;2024-02-15T00:15:23;0.20;;;0.20;;
13012;SDS011;22580;57.670;12.006;2024-02-15T00:17:50;0.20;;;0.20;;
13012;SDS011;22580;57.670;12.006;2024-02-15T00:20:21;0.30;;;0.30;;
13012;SDS011;22580;57.670;12.006;2024-02-15T00:22:48;0.20;;;0.20;;
13012;SDS011;22580;57.670;12.006;2024-02-15T00:25:15;0.27;;;0.27;;
13012;SDS011;22580;57.670;12.006;2024-02-15T00:27:42;0.30;;;0.30;;
13012;SDS011;22580;57.670;12.006;2024-02-15T00:30:10;0.40;;;0.40;;
13012;SDS011;22580;57.670;12.006;2024-02-15T00:32:37;0.40;;;0.40;;
13012;SDS011;22580;57.670;12.006;2024-02-15T00:35:04;0.40;;;0.40;;
13012;SDS011;22580;57.670;12.006;2024-02-15T00:37:34;0.40;;;0.40;;
13012;SDS011;22580;57.670;12.006;2024-02-15T00:40:01;0.50;;;0.50;;
13012;SDS011;22580;57.670;12.006;2024-02-15T00:42:29;0.20;;;0.20;;
13012;SDS011;22580;57.670;12.006;2024-02-15T00:44:56;0.37;;;0.37;;
13012;SDS011;22580;57.670;12.006;2024-02-15T00:47:24;0.30;;;0.30;;
13012;SDS011;22580;57.670;12.006;2024-02-15T00:49:51;0.20;;;0.20;;
13012;SDS011;22580;57.670;12.006;2024-02-15T00:52:18;0.37;;;0.37;;
13012;SDS011;22580;57.670;12.006;2024-02-15T00:54:47;0.20;;;0.20;;
13012;SDS011;22580;57.670;12.006;2024-02-15T00:57:14;0.23;;;0.23;;
13012;SDS011;22580;57.670;12.006;2024-02-15T00:59:40;0.30;;;0.30;;
13012;SDS011;22580;57.670;12.006;2024-02-15T01:02:07;0.20;;;0.20;;
13012;SDS011;22580;57.670;12.006;2024-02-15T01:04:34;0.40;;;0.40;;
13012;SDS011;22580;57.670;12.006;2024-02-15T01:07:01;0.40;;;0.40;;
13012;SDS011;22580;57.670;12.006;2024-02-15T01:09:29;0.40;;;0.40;;
13012;SDS011;22580;57.670;12.006;2024-02-15T01:12:00;0.47;;;0.47;;
13012;SDS011;22580;57.670;12.006;2024-02-15T01:14:28;0.50;;;0.50;;
13012;SDS011;22580;57.670;12.006;2024-02-15T01:16:56;0.50;;;0.50;;
13012;SDS011;22580;57.670;12.006;2024-02-15T01:19:23;0.40;;;0.40;;
13012;SDS011;22580;57.670;12.006;2024-02-15T01:21:49;0.40;;;0.40;;
13012;SDS011;22580;57.670;12.006;2024-02-15T01:24:18;0.40;;;0.40;;
13012;SDS011;22580;57.670;12.006;2024-02-15T01:26:46;0.37;;;0.37;;
13012;SDS011;22580;57.670;12.006;2024-02-15T01:29:16;0.50;;;0.50;;
13012;SDS011;22580;57.670;12.006;2024-02-15T01:31:43;0.60;;;0.60;;
13012;SDS011;22580;57.670;12.006;2024-02-15T01:34:10;0.30;;;0.30;;
13012;SDS011;22580;57.670;12.006;2024-02-15T01:36:38;0.50;;;0.50;;
13012;SDS011;22580;57.670;12.006;2024-02-15T01:39:05;0.47;;;0.47;;
13012;SDS011;22580;57.670;12.006;2024-02-15T01:41:33;0.40;;;0.40;;
13012;SDS011;22580;57.670;12.006;2024-02-15T01:44:00;0.30;;;0.30;;
13012;SDS011;22580;57.670;12.006;2024-02-15T01:46:28;0.33;;;0.33;;
13012;SDS011;22580;57.670;12.006;2024-02-15T01:48:56;0.40;;;0.40;;
13012;SDS011;22580;57.670;12.006;2024-02-15T01:51:24;0.40;;;0.40;;
13012;SDS011;22580;57.670;12.006;2024-02-15T01:53:53;0.20;;;0.20;;
13012;SDS011;22580;57.670;12.006;2024-02-15T01:56:20;0.23;;;0.23;;
13012;SDS011;22580;57.670;12.006;2024-02-15T01:58:50;0.27;;;0.27;;
13012;SDS011;22580;57.670;12.006;2024-02-15T02:01:20;0.40;;;0.40;;
13012;SDS011;22580;57.670;12.006;2024-02-15T02:03:50;0.20;;;0.20;;
13012;SDS011;22580;57.670;12.006;2024-02-15T02:06:19;0.30;;;0.30;;
13012;SDS011;22580;57.670;12.006;2024-02-15T02:08:46;0.70;;;0.70;;
13012;SDS011;22580;57.670;12.006;2024-02-15T02:11:14;0.53;;;0.53;;
13012;SDS011;22580;57.670;12.006;2024-02-15T02:13:41;0.30;;;0.30;;
13012;SDS011;22580;57.670;12.006;2024-02-15T02:18:56;0.50;;;0.50;;
13012;SDS011;22580;57.670;12.006;2024-02-15T02:21:23;0.40;;;0.40;;
13012;SDS011;22580;57.670;12.006;2024-02-15T02:23:52;0.30;;;0.30;;
13012;SDS011;22580;57.670;12.006;2024-02-15T02:26:23;0.20;;;0.20;;
13012;SDS011;22580;57.670;12.006;2024-02-15T02:28:51;0.30;;;0.30;;
13012;SDS011;22580;57.670;12.006;2024-02-15T02:31:20;0.33;;;0.33;;
13012;SDS011;22580;57.670;12.006;2024-02-15T02:33:48;0.30;;;0.30;;
13012;SDS011;22580;57.670;12.006;2024-02-15T02:36:17;0.40;;;0.40;;
13012;SDS011;22580;57.670;12.006;2024-02-15T02:38:45;0.40;;;0.40;;
13012;SDS011;22580;57.670;12.006;2024-02-15T02:41:15;0.20;;;0.20;;
13012;SDS011;22580;57.670;12.006;2024-02-15T02:43:45;0.30;;;0.30;;
13012;SDS011;22580;57.670;12.006;2024-02-15T02:46:12;0.20;;;0.20;;
13012;SDS011;22580;57.670;12.006;2024-02-15T02:48:40;0.20;;;0.20;;
13012;SDS011;22580;57.670;12.006;2024-02-15T02:51:07;0.27;;;0.27;;
13012;SDS011;22580;57.670;12.006;2024-02-15T02:53:35;0.30;;;0.30;;
13012;SDS011;22580;57.670;12.006;2024-02-15T02:56:02;0.40;;;0.40;;
13012;SDS011;22580;57.670;12.006;2024-02-15T02:58:30;0.30;;;0.30;;
13012;SDS011;22580;57.670;12.006;2024-02-15T03:00:59;0.20;;;0.20;;
13012;SDS011;22580;57.670;12.006;2024-02-15T03:03:27;0.37;;;0.37;;
13012;SDS011;22580;57.670;12.006;2024-02-15T03:05:55;0.30;;;0.30;;
13012;SDS011;22580;57.670;12.006;2024-02-15T03:08:23;0.20;;;0.20;;
13012;SDS011;22580;57.670;12.006;2024-02-15T03:10:50;0.30;;;0.30;;
13012;SDS011;22580;57.670;12.006;2024-02-15T03:13:18;0.30;;;0.30;;
13012;SDS011;22580;57.670;12.006;2024-02-15T03:15:46;0.30;;;0.30;;
13012;SDS011;22580;57.670;12.006;2024-02-15T03:18:15;0.37;;;0.37;;
13012;SDS011;22580;57.670;12.006;2024-02-15T03:20:42;0.40;;;0.40;;
13012;SDS011;22580;57.670;12.006;2024-02-15T03:23:10;0.50;;;0.50;;
13012;SDS011;22580;57.670;12.006;2024-02-15T03:25:38;0.40;;;0.40;;
13012;SDS011;22580;57.670;12.006;2024-02-15T03:28:05;0.50;;;0.50;;
13012;SDS011;22580;57.670;12.006;2024-02-15T03:30:32;0.40;;;0.40;;
13012;SDS011;22580;57.670;12.006;2024-02-15T03:33:00;0.40;;;0.40;;
13012;SDS011;22580;57.670;12.006;2024-02-15T03:35:30;0.30;;;0.30;;
13012;SDS011;22580;57.670;12.006;2024-02-15T03:37:56;0.37;;;0.37;;
13012;SDS011;22580;57.670;12.006;2024-02-15T03:40:23;0.20;;;0.20;;
13012;SDS011;22580;57.670;12.006;2024-02-15T03:42:52;0.20;;;0.20;;
13012;SDS011;22580;57.670;12.006;2024-02-15T03:45:19;0.20;;;0.20;;
13012;SDS011;22580;57.670;12.006;2024-02-15T03:47:50;0.27;;;0.27;;
13012;SDS011;22580;57.670;12.006;2024-02-15T03:50:17;0.20;;;0.20;;
13012;SDS011;22580;57.670;12.006;2024-02-15T03:52:48;0.20;;;0.20;;
13012;SDS011;22580;57.670;12.006;2024-02-15T03:55:16;0.23;;;0.23;;
13012;SDS011;22580;57.670;12.006;2024-02-15T03:57:45;0.30;;;0.30;;
13012;SDS011;22580;57.670;12.006;2024-02-15T04:00:12;0.30;;;0.30;;
13012;SDS011;22580;57.670;12.006;2024-02-15T04:02:40;0.30;;;0.30;;
13012;SDS011;22580;57.670;12.006;2024-02-15T04:05:09;0.50;;;0.50;;
13012;SDS011;22580;57.670;12.006;2024-02-15T04:07:37;0.23;;;0.23;;
13012;SDS011;22580;57.670;12.006;2024-02-15T04:10:08;0.40;;;0.40;;
13012;SDS011;22580;57.670;12.006;2024-02-15T04:12:35;0.40;;;0.40;;
13012;SDS011;22580;57.670;12.006;2024-02-15T04:15:03;0.30;;;0.30;;
13012;SDS011;22580;57.670;12.006;2024-02-15T04:17:36;0.40;;;0.40;;
13012;SDS011;22580;57.670;12.006;2024-02-15T04:20:04;0.33;;;0.33;;
13012;SDS011;22580;57.670;12.006;2024-02-15T04:22:32;0.33;;;0.33;;
13012;SDS011;22580;57.670;12.006;2024-02-15T04:25:01;0.40;;;0.40;;
13012;SDS011;22580;57.670;12.006;2024-02-15T04:27:30;0.30;;;0.30;;
13012;SDS011;22580;57.670;12.006;2024-02-15T04:29:58;0.50;;;0.50;;
13012;SDS011;22580;57.670;12.006;2024-02-15T04:32:25;0.60;;;0.60;;
13012;SDS011;22580;57.670;12.006;2024-02-15T04:34:54;0.37;;;0.37;;
13012;SDS011;22580;57.670;12.006;2024-02-15T04:37:20;0.53;;;0.53;;
13012;SDS011;22580;57.670;12.006;2024-02-15T04:39:48;0.40;;;0.40;;
13012;SDS011;22580;57.670;12.006;2024-02-15T04:42:15;0.30;;;0.30;;
13012;SDS011;22580;57.670;12.006;2024-02-15T04:44:47;0.30;;;0.30;;
13012;SDS011;22580;57.670;12.006;2024-02-15T04:47:18;0.50;;;0.50;;
13012;SDS011;22580;57.670;12.006;2024-02-15T04:49:46;0.50;;;0.50;;
13012;SDS011;22580;57.670;12.006;2024-02-15T04:52:14;0.30;;;0.30;;
13012;SDS011;22580;57.670;12.006;2024-02-15T04:54:43;0.60;;;0.60;;
13012;SDS011;22580;57.670;12.006;2024-02-15T04:57:10;0.80;;;0.80;;
13012;SDS011;22580;57.670;12.006;2024-02-15T04:59:38;0.60;;;0.60;;
13012;SDS011;22580;57.670;12.006;2024-02-15T05:02:06;0.70;;;0.70;;
13012;SDS011;22580;57.670;12.006;2024-02-15T05:04:34;0.60;;;0.60;;
13012;SDS011;22580;57.670;12.006;2024-02-15T05:07:01;0.60;;;0.60;;
13012;SDS011;22580;57.670;12.006;2024-02-15T05:09:29;0.60;;;0.60;;
13012;SDS011;22580;57.670;12.006;2024-02-15T05:11:56;0.60;;;0.60;;
13012;SDS011;22580;57.670;12.006;2024-02-15T05:14:26;0.60;;;0.60;;
13012;SDS011;22580;57.670;12.006;2024-02-15T05:16:53;0.63;;;0.63;;
13012;SDS011;22580;57.670;12.006;2024-02-15T05:19:24;0.70;;;0.70;;
13012;SDS011;22580;57.670;12.006;2024-02-15T05:21:52;0.70;;;0.70;;
13012;SDS011;22580;57.670;12.006;2024-02-15T05:24:20;0.50;;;0.50;;
13012;SDS011;22580;57.670;12.006;2024-02-15T05:26:47;0.50;;;0.50;;
13012;SDS011;22580;57.670;12.006;2024-02-15T05:29:15;0.60;;;0.60;;
13012;SDS011;22580;57.670;12.006;2024-02-15T05:31:43;0.50;;;0.50;;
13012;SDS011;22580;57.670;12.006;2024-02-15T05:34:10;0.77;;;0.60;;
13012;SDS011;22580;57.670;12.006;2024-02-15T05:36:40;0.50;;;0.50;;
13012;SDS011;22580;57.670;12.006;2024-02-15T05:39:07;0.57;;;0.57;;
13012;SDS011;22580;57.670;12.006;2024-02-15T05:41:36;0.40;;;0.40;;
13012;SDS011;22580;57.670;12.006;2024-02-15T05:44:05;0.40;;;0.40;;
13012;SDS011;22580;57.670;12.006;2024-02-15T05:46:33;0.60;;;0.60;;
13012;SDS011;22580;57.670;12.006;2024-02-15T05:49:02;0.60;;;0.60;;
13012;SDS011;22580;57.670;12.006;2024-02-15T05:51:31;0.93;;;0.83;;
13012;SDS011;22580;57.670;12.006;2024-02-15T05:54:00;0.80;;;0.80;;
13012;SDS011;22580;57.670;12.006;2024-02-15T05:56:27;0.63;;;0.63;;
13012;SDS011;22580;57.670;12.006;2024-02-15T05:58:56;0.63;;;0.63;;
13012;SDS011;22580;57.670;12.006;2024-02-15T06:01:23;0.50;;;0.50;;
13012;SDS011;22580;57.670;12.006;2024-02-15T06:03:50;0.57;;;0.57;;
13012;SDS011;22580;57.670;12.006;2024-02-15T06:06:20;0.50;;;0.50;;
13012;SDS011;22580;57.670;12.006;2024-02-15T06:08:51;0.50;;;0.50;;
13012;SDS011;22580;57.670;12.006;2024-02-15T06:11:20;0.60;;;0.60;;
13012;SDS011;22580;57.670;12.006;2024-02-15T06:13:47;0.50;;;0.50;;
13012;SDS011;22580;57.670;12.006;2024-02-15T06:16:14;0.40;;;0.40;;
13012;SDS011;22580;57.670;12.006;2024-02-15T06:18:41;0.40;;;0.40;;
13012;SDS011;22580;57.670;12.006;2024-02-15T06:21:08;0.50;;;0.50;;
13012;SDS011;22580;57.670;12.006;2024-02-15T06:23:35;0.50;;;0.50;;
13012;SDS011;22580;57.670;12.006;2024-02-15T06:26:02;0.60;;;0.60;;
13012;SDS011;22580;57.670;12.006;2024-02-15T06:28:32;0.57;;;0.57;;
13012;SDS011;22580;57.670;12.006;2024-02-15T06:31:16;0.60;;;0.60;;
13012;SDS011;22580;57.670;12.006;2024-02-15T06:34:00;0.67;;;0.67;;
13012;SDS011;22580;57.670;12.006;2024-02-15T06:36:45;0.30;;;0.30;;
13012;SDS011;22580;57.670;12.006;2024-02-15T06:39:31;0.57;;;0.57;;
13012;SDS011;22580;57.670;12.006;2024-02-15T06:42:07;0.67;;;0.67;;
13012;SDS011;22580;57.670;12.006;2024-02-15T06:44:36;0.50;;;0.50;;
13012;SDS011;22580;57.670;12.006;2024-02-15T06:47:03;0.40;;;0.40;;
13012;SDS011;22580;57.670;12.006;2024-02-15T06:49:31;0.57;;;0.57;;
13012;SDS011;22580;57.670;12.006;2024-02-15T06:51:59;0.40;;;0.40;;
13012;SDS011;22580;57.670;12.006;2024-02-15T06:54:27;0.30;;;0.30;;
13012;SDS011;22580;57.670;12.006;2024-02-15T06:56:55;0.60;;;0.60;;
13012;SDS011;22580;57.670;12.006;2024-02-15T06:59:24;0.60;;;0.60;;
13012;SDS011;22580;57.670;12.006;2024-02-15T07:01:52;0.50;;;0.50;;
13012;SDS011;22580;57.670;12.006;2024-02-15T07:04:20;0.60;;;0.60;;
13012;SDS011;22580;57.670;12.006;2024-02-15T07:06:50;0.50;;;0.50;;
13012;SDS011;22580;57.670;12.006;2024-02-15T07:09:19;0.73;;;0.70;;
13012;SDS011;22580;57.670;12.006;2024-02-15T07:11:48;0.80;;;0.80;;
13012;SDS011;22580;57.670;12.006;2024-02-15T07:14:15;0.73;;;0.73;;
13012;SDS011;22580;57.670;12.006;2024-02-15T07:16:44;0.87;;;0.87;;
13012;SDS011;22580;57.670;12.006;2024-02-15T07:19:12;0.77;;;0.77;;
13012;SDS011;22580;57.670;12.006;2024-02-15T07:21:40;0.70;;;0.70;;
13012;SDS011;22580;57.670;12.006;2024-02-15T07:24:08;0.80;;;0.80;;
13012;SDS011;22580;57.670;12.006;2024-02-15T07:26:36;0.70;;;0.70;;
13012;SDS011;22580;57.670;12.006;2024-02-15T07:29:03;0.60;;;0.60;;
13012;SDS011;22580;57.670;12.006;2024-02-15T07:31:31;0.73;;;0.73;;
13012;SDS011;22580;57.670;12.006;2024-02-15T07:33:59;0.60;;;0.60;;
13012;SDS011;22580;57.670;12.006;2024-02-15T07:36:28;0.80;;;0.80;;
13012;SDS011;22580;57.670;12.006;2024-02-15T07:38:55;0.70;;;0.70;;
13012;SDS011;22580;57.670;12.006;2024-02-15T07:41:26;0.60;;;0.60;;
13012;SDS011;22580;57.670;12.006;2024-02-15T07:43:53;0.83;;;0.83;;
13012;SDS011;22580;57.670;12.006;2024-02-15T07:46:20;0.90;;;0.90;;
13012;SDS011;22580;57.670;12.006;2024-02-15T07:48:49;0.50;;;0.50;;
13012;SDS011;22580;57.670;12.006;2024-02-15T07:51:16;0.73;;;0.73;;
13012;SDS011;22580;57.670;12.006;2024-02-15T07:53:49;0.50;;;0.50;;
13012;SDS011;22580;57.670;12.006;2024-02-15T07:56:17;1.00;;;1.00;;
13012;SDS011;22580;57.670;12.006;2024-02-15T07:58:44;0.80;;;0.80;;
13012;SDS011;22580;57.670;12.006;2024-02-15T08:01:12;0.80;;;0.80;;
13012;SDS011;22580;57.670;12.006;2024-02-15T08:03:39;0.70;;;0.70;;
13012;SDS011;22580;57.670;12.006;2024-02-15T08:06:09;0.93;;;0.93;;
13012;SDS011;22580;57.670;12.006;2024-02-15T08:08:38;0.77;;;0.77;;
13012;SDS011;22580;57.670;12.006;2024-02-15T08:11:07;1.00;;;1.00;;
13012;SDS011;22580;57.670;12.006;2024-02-15T08:13:40;0.67;;;0.67;;
13012;SDS011;22580;57.670;12.006;2024-02-15T08:16:09;0.60;;;0.60;;
13012;SDS011;22580;57.670;12.006;2024-02-15T08:18:37;0.50;;;0.50;;
13012;SDS011;22580;57.670;12.006;2024-02-15T08:21:04;0.40;;;0.40;;
13012;SDS011;22580;57.670;12.006;2024-02-15T08:23:31;0.60;;;0.60;;
13012;SDS011;22580;57.670;12.006;2024-02-15T08:25:58;0.50;;;0.50;;
13012;SDS011;22580;57.670;12.006;2024-02-15T08:28:27;0.60;;;0.60;;
13012;SDS011;22580;57.670;12.006;2024-02-15T08:30:54;0.70;;;0.70;;
13012;SDS011;22580;57.670;12.006;2024-02-15T08:33:22;0.77;;;0.67;;
13012;SDS011;22580;57.670;12.006;2024-02-15T08:35:53;1.20;;;1.20;;
13012;SDS011;22580;57.670;12.006;2024-02-15T08:38:21;1.00;;;1.00;;
13012;SDS011;22580;57.670;12.006;2024-02-15T08:40:48;0.70;;;0.70;;
13012;SDS011;22580;57.670;12.006;2024-02-15T08:43:15;0.67;;;0.67;;
13012;SDS011;22580;57.670;12.006;2024-02-15T08:45:43;1.10;;;1.10;;
13012;SDS011;22580;57.670;12.006;2024-02-15T08:48:10;0.73;;;0.73;;
13012;SDS011;22580;57.670;12.006;2024-02-15T08:50:38;0.67;;;0.67;;
13012;SDS011;22580;57.670;12.006;2024-02-15T08:53:06;0.90;;;0.90;;
13012;SDS011;22580;57.670;12.006;2024-02-15T08:55:34;0.80;;;0.80;;
13012;SDS011;22580;57.670;12.006;2024-02-15T08:58:02;0.80;;;0.80;;
13012;SDS011;22580;57.670;12.006;2024-02-15T09:00:29;1.00;;;1.00;;
13012;SDS011;22580;57.670;12.006;2024-02-15T09:02:57;0.90;;;0.90;;
13012;SDS011;22580;57.670;12.006;2024-02-15T09:05:24;1.00;;;1.00;;
13012;SDS011;22580;57.670;12.006;2024-02-15T09:07:51;0.90;;;0.90;;
13012;SDS011;22580;57.670;12.006;2024-02-15T09:10:18;0.90;;;0.90;;
13012;SDS011;22580;57.670;12.006;2024-02-15T09:12:47;0.60;;;0.60;;
13012;SDS011;22580;57.670;12.006;2024-02-15T09:15:15;0.60;;;0.60;;
13012;SDS011;22580;57.670;12.006;2024-02-15T09:17:42;0.67;;;0.67;;
13012;SDS011;22580;57.670;12.006;2024-02-15T09:20:12;0.80;;;0.80;;
13012;SDS011;22580;57.670;12.006;2024-02-15T09:22:47;0.63;;;0.63;;
13012;SDS011;22580;57.670;12.006;2024-02-15T09:25:14;0.70;;;0.70;;
13012;SDS011;22580;57.670;12.006;2024-02-15T09:27:41;0.57;;;0.57;;
13012;SDS011;22580;57.670;12.006;2024-02-15T09:30:09;0.60;;;0.60;;
13012;SDS011;22580;57.670;12.006;2024-02-15T09:32:37;0.80;;;0.80;;
13012;SDS011;22580;57.670;12.006;2024-02-15T09:35:05;0.83;;;0.83;;
13012;SDS011;22580;57.670;12.006;2024-02-15T09:37:35;0.67;;;0.67;;
13012;SDS011;22580;57.670;12.006;2024-02-15T09:40:00;0.63;;;0.63;;
13012;SDS011;22580;57.670;12.006;2024-02-15T09:42:32;0.80;;;0.80;;
13012;SDS011;22580;57.670;12.006;2024-02-15T09:45:00;0.70;;;0.70;;
13012;SDS011;22580;57.670;12.006;2024-02-15T09:47:30;0.87;;;0.87;;
13012;SDS011;22580;57.670;12.006;2024-02-15T09:50:01;0.80;;;0.80;;
13012;SDS011;22580;57.670;12.006;2024-02-15T09:52:29;0.50;;;0.50;;
13012;SDS011;22580;57.670;12.006;2024-02-15T09:55:00;0.70;;;0.70;;
13012;SDS011;22580;57.670;12.006;2024-02-15T09:57:29;0.80;;;0.80;;
13012;SDS011;22580;57.670;12.006;2024-02-15T09:59:58;0.77;;;0.77;;
13012;SDS011;22580;57.670;12.006;2024-02-15T10:02:25;0.93;;;0.87;;
13012;SDS011;22580;57.670;12.006;2024-02-15T10:04:53;0.60;;;0.60;;
13012;SDS011;22580;57.670;12.006;2024-02-15T10:07:22;0.80;;;0.80;;
13012;SDS011;22580;57.670;12.006;2024-02-15T10:09:49;0.60;;;0.60;;
13012;SDS011;22580;57.670;12.006;2024-02-15T10:12:18;0.60;;;0.60;;
13012;SDS011;22580;57.670;12.006;2024-02-15T10:14:47;0.50;;;0.50;;
13012;SDS011;22580;57.670;12.006;2024-02-15T10:17:17;0.70;;;0.70;;
13012;SDS011;22580;57.670;12.006;2024-02-15T10:19:56;0.60;;;0.60;;
13012;SDS011;22580;57.670;12.006;2024-02-15T10:22:29;0.60;;;0.60;;
13012;SDS011;22580;57.670;12.006;2024-02-15T10:25:09;0.60;;;0.60;;
13012;SDS011;22580;57.670;12.006;2024-02-15T10:27:41;0.40;;;0.40;;
13012;SDS011;22580;57.670;12.006;2024-02-15T10:30:14;0.40;;;0.40;;
13012;SDS011;22580;57.670;12.006;2024-02-15T10:32:43;0.53;;;0.53;;
13012;SDS011;22580;57.670;12.006;2024-02-15T10:35:12;0.40;;;0.40;;
13012;SDS011;22580;57.670;12.006;2024-02-15T10:37:46;0.60;;;0.60;;
13012;SDS011;22580;57.670;12.006;2024-02-15T10:40:17;0.50;;;0.50;;
13012;SDS011;22580;57.670;12.006;2024-02-15T10:42:46;0.60;;;0.60;;
13012;SDS011;22580;57.670;12.006;2024-02-15T10:45:14;0.50;;;0.50;;
13012;SDS011;22580;57.670;12.006;2024-02-15T10:47:43;0.30;;;0.30;;
13012;SDS011;22580;57.670;12.006;2024-02-15T10:50:11;0.50;;;0.50;;
13012;SDS011;22580;57.670;12.006;2024-02-15T10:52:43;0.40;;;0.40;;
13012;SDS011;22580;57.670;12.006;2024-02-15T10:55:19;0.60;;;0.60;;
13012;SDS011;22580;57.670;12.006;2024-02-15T10:57:54;0.40;;;0.40;;
13012;SDS011;22580;57.670;12.006;2024-02-15T11:00:28;0.43;;;0.43;;
13012;SDS011;22580;57.670;12.006;2024-02-15T11:03:00;0.50;;;0.50;;
13012;SDS011;22580;57.670;12.006;2024-02-15T11:05:31;0.40;;;0.40;;
13012;SDS011;22580;57.670;12.006;2024-02-15T11:08:04;0.30;;;0.30;;
13012;SDS011;22580;57.670;12.006;2024-02-15T11:10:33;0.50;;;0.50;;
13012;SDS011;22580;57.670;12.006;2024-02-15T11:13:03;0.37;;;0.37;;
13012;SDS011;22580;57.670;12.006;2024-02-15T11:21:10;0.70;;;0.70;;
13012;SDS011;22580;57.670;12.006;2024-02-15T11:23:37;0.50;;;0.50;;
13012;SDS011;22580;57.670;12.006;2024-02-15T11:26:08;0.57;;;0.57;;
13012;SDS011;22580;57.670;12.006;2024-02-15T11:28:43;0.53;;;0.53;;
13012;SDS011;22580;57.670;12.006;2024-02-15T11:37:09;0.93;;;0.93;;
13012;SDS011;22580;57.670;12.006;2024-02-15T11:39:42;1.20;;;1.10;;
13012;SDS011;22580;57.670;12.006;2024-02-15T11:42:25;1.10;;;1.00;;
13012;SDS011;22580;57.670;12.006;2024-02-15T11:45:03;0.87;;;0.80;;
13012;SDS011;22580;57.670;12.006;2024-02-15T11:47:31;0.90;;;0.90;;
13012;SDS011;22580;57.670;12.006;2024-02-15T11:49:59;0.70;;;0.70;;
13012;SDS011;22580;57.670;12.006;2024-02-15T11:52:28;0.73;;;0.73;;
13012;SDS011;22580;57.670;12.006;2024-02-15T11:55:04;0.60;;;0.60;;
13012;SDS011;22580;57.670;12.006;2024-02-15T11:57:35;0.70;;;0.70;;
13012;SDS011;22580;57.670;12.006;2024-02-15T12:00:20;0.70;;;0.70;;
13012;SDS011;22580;57.670;12.006;2024-02-15T12:03:05;0.47;;;0.47;;
13012;SDS011;22580;57.670;12.006;2024-02-15T12:05:50;0.53;;;0.53;;
13012;SDS011;22580;57.670;12.006;2024-02-15T12:08:35;0.60;;;0.60;;
13012;SDS011;22580;57.670;12.006;2024-02-15T12:11:19;0.73;;;0.73;;
13012;SDS011;22580;57.670;12.006;2024-02-15T12:14:03;0.60;;;0.60;;
13012;SDS011;22580;57.670;12.006;2024-02-15T12:16:59;0.50;;;0.50;;
13012;SDS011;22580;57.670;12.006;2024-02-15T12:19:47;0.60;;;0.60;;
13012;SDS011;22580;57.670;12.006;2024-02-15T12:22:16;0.70;;;0.70;;
13012;SDS011;22580;57.670;12.006;2024-02-15T12:24:52;0.77;;;0.67;;
13012;SDS011;22580;57.670;12.006;2024-02-15T12:27:19;0.70;;;0.70;;
13012;SDS011;22580;57.670;12.006;2024-02-15T12:29:52;0.50;;;0.50;;
13012;SDS011;22580;57.670;12.006;2024-02-15T12:32:21;0.60;;;0.60;;
13012;SDS011;22580;57.670;12.006;2024-02-15T12:34:49;0.40;;;0.40;;
13012;SDS011;22580;57.670;12.006;2024-02-15T12:37:17;0.30;;;0.30;;
13012;SDS011;22580;57.670;12.006;2024-02-15T12:39:46;0.37;;;0.37;;
13012;SDS011;22580;57.670;12.006;2024-02-15T12:42:13;0.37;;;0.37;;
13012;SDS011;22580;57.670;12.006;2024-02-15T12:44:42;0.50;;;0.50;;
13012;SDS011;22580;57.670;12.006;2024-02-15T12:47:17;0.40;;;0.40;;
13012;SDS011;22580;57.670;12.006;2024-02-15T12:49:46;0.50;;;0.50;;
13012;SDS011;22580;57.670;12.006;2024-02-15T12:52:34;0.70;;;0.70;;
13012;SDS011;22580;57.670;12.006;2024-02-15T12:55:11;0.50;;;0.50;;
13012;SDS011;22580;57.670;12.006;2024-02-15T12:57:39;0.53;;;0.53;;
13012;SDS011;22580;57.670;12.006;2024-02-15T13:00:10;0.80;;;0.80;;
13012;SDS011;22580;57.670;12.006;2024-02-15T13:02:42;0.60;;;0.60;;
13012;SDS011;22580;57.670;12.006;2024-02-15T13:05:11;0.53;;;0.53;;
13012;SDS011;22580;57.670;12.006;2024-02-15T13:07:39;0.50;;;0.50;;
13012;SDS011;22580;57.670;12.006;2024-02-15T13:10:06;0.40;;;0.40;;
13012;SDS011;22580;57.670;12.006;2024-02-15T13:12:34;0.50;;;0.50;;
13012;SDS011;22580;57.670;12.006;2024-02-15T13:15:03;0.53;;;0.53;;
13012;SDS011;22580;57.670;12.006;2024-02-15T13:17:31;0.43;;;0.43;;
13012;SDS011;22580;57.670;12.006;2024-02-15T13:20:00;0.40;;;0.40;;
13012;SDS011;22580;57.670;12.006;2024-02-15T13:22:37;0.40;;;0.40;;
13012;SDS011;22580;57.670;12.006;2024-02-15T13:25:04;0.30;;;0.30;;
13012;SDS011;22580;57.670;12.006;2024-02-15T13:27:32;0.20;;;0.20;;
13012;SDS011;22580;57.670;12.006;2024-02-15T13:30:00;0.30;;;0.30;;
13012;SDS011;22580;57.670;12.006;2024-02-15T13:32:27;0.20;;;0.20;;
13012;SDS011;22580;57.670;12.006;2024-02-15T13:34:54;0.30;;;0.30;;
13012;SDS011;22580;57.670;12.006;2024-02-15T13:37:28;0.40;;;0.40;;
13012;SDS011;22580;57.670;12.006;2024-02-15T13:39:56;0.27;;;0.27;;
13012;SDS011;22580;57.670;12.006;2024-02-15T13:42:23;0.40;;;0.40;;
13012;SDS011;22580;57.670;12.006;2024-02-15T13:44:49;0.57;;;0.57;;
13012;SDS011;22580;57.670;12.006;2024-02-15T13:47:16;0.50;;;0.50;;
13012;SDS011;22580;57.670;12.006;2024-02-15T13:49:43;0.40;;;0.40;;
13012;SDS011;22580;57.670;12.006;2024-02-15T13:52:10;0.47;;;0.47;;
13012;SDS011;22580;57.670;12.006;2024-02-15T13:54:40;0.50;;;0.50;;
13012;SDS011;22580;57.670;12.006;2024-02-15T13:57:09;0.50;;;0.50;;
13012;SDS011;22580;57.670;12.006;2024-02-15T13:59:36;0.40;;;0.40;;
13012;SDS011;22580;57.670;12.006;2024-02-15T14:02:04;0.30;;;0.30;;
13012;SDS011;22580;57.670;12.006;2024-02-15T14:04:31;0.50;;;0.50;;
13012;SDS011;22580;57.670;12.006;2024-02-15T14:06:59;0.47;;;0.47;;
13012;SDS011;22580;57.670;12.006;2024-02-15T14:09:25;0.30;;;0.30;;
13012;SDS011;22580;57.670;12.006;2024-02-15T14:11:53;0.30;;;0.30;;
13012;SDS011;22580;57.670;12.006;2024-02-15T14:14:21;0.30;;;0.30;;
13012;SDS011;22580;57.670;12.006;2024-02-15T14:16:48;0.20;;;0.20;;
13012;SDS011;22580;57.670;12.006;2024-02-15T14:19:15;0.30;;;0.30;;
13012;SDS011;22580;57.670;12.006;2024-02-15T14:21:42;0.50;;;0.50;;
13012;SDS011;22580;57.670;12.006;2024-02-15T14:24:10;0.37;;;0.37;;
13012;SDS011;22580;57.670;12.006;2024-02-15T14:26:37;0.50;;;0.50;;
13012;SDS011;22580;57.670;12.006;2024-02-15T14:29:03;0.33;;;0.33;;
13012;SDS011;22580;57.670;12.006;2024-02-15T14:31:32;0.47;;;0.47;;
13012;SDS011;22580;57.670;12.006;2024-02-15T14:34:16;0.40;;;0.40;;
13012;SDS011;22580;57.670;12.006;2024-02-15T14:36:45;0.40;;;0.40;;
13012;SDS011;22580;57.670;12.006;2024-02-15T14:39:12;0.43;;;0.43;;
13012;SDS011;22580;57.670;12.006;2024-02-15T14:41:40;0.50;;;0.50;;
13012;SDS011;22580;57.670;12.006;2024-02-15T14:44:08;0.40;;;0.40;;
13012;SDS011;22580;57.670;12.006;2024-02-15T14:46:39;0.33;;;0.33;;
13012;SDS011;22580;57.670;12.006;2024-02-15T14:49:06;0.30;;;0.30;;
13012;SDS011;22580;57.670;12.006;2024-02-15T14:51:33;0.30;;;0.30;;
13012;SDS011;22580;57.670;12.006;2024-02-15T14:54:02;0.30;;;0.30;;
13012;SDS011;22580;57.670;12.006;2024-02-15T14:56:29;0.40;;;0.40;;
13012;SDS011;22580;57.670;12.006;2024-02-15T14:58:58;0.50;;;0.50;;